Time;durP1;ratioP1;P1;durP2;ratioP2;P2;SDS_P1;SDS_P2;PMS_P1;PMS_P2;Temp;Humidity;BMP_temperature;BMP_pressure;BME280_temperature;BME280_humidity;BME280_pressure;Samples;Min_cycle;Max_cycle;Signal;HPM_P1;HPM_P2
2021/08/04 00:02:20;;;;;;;1999.90;999.90;;;;;;;15.14;47.42;100794.44;5036834;27;97698;-73
2021/08/04 00:04:48;;;;;;;1999.90;999.90;;;;;;;15.12;47.27;100791.75;5020506;27;97246;-74
2021/08/04 00:07:16;;;;;;;1999.90;999.90;;;;;;;15.12;47.45;100788.19;5036287;27;99311;-74
2021/08/04 00:09:44;;;;;;;1999.90;999.90;;;;;;;15.09;47.31;100791.75;5036420;27;98347;-73
2021/08/04 00:12:13;;;;;;;1999.90;999.90;;;;;;;15.09;47.77;100788.19;5035436;27;98007;-74
2021/08/04 00:14:41;;;;;;;1999.90;999.90;;;;;;;15.07;47.73;100792.63;5038430;27;97563;-74
2021/08/04 00:17:09;;;;;;;1999.90;999.90;;;;;;;15.04;47.96;100789.97;5038274;27;99110;-74
2021/08/04 00:19:37;;;;;;;1999.90;999.90;;;;;;;15.02;47.74;100797.09;5040292;27;100563;-73
2021/08/04 00:22:05;;;;;;;1999.90;999.90;;;;;;;15.01;48.02;100797.97;5040347;27;97168;-74
2021/08/04 00:24:33;;;;;;;1999.90;999.90;;;;;;;14.99;47.89;100800.66;5040601;27;98904;-74
2021/08/04 00:27:00;;;;;;;1999.90;999.90;;;;;;;14.99;47.85;100807.81;5037772;27;97707;-73
2021/08/04 00:29:30;;;;;;;1999.90;999.90;;;;;;;14.97;48.11;100801.56;5039560;27;99619;-73
2021/08/04 00:31:57;;;;;;;1999.90;999.90;;;;;;;14.96;47.78;100805.09;5040368;27;97487;-74
2021/08/04 00:34:25;;;;;;;1999.90;999.90;;;;;;;14.93;48.05;100810.47;5040772;27;97951;-73
2021/08/04 00:36:53;;;;;;;1999.90;999.90;;;;;;;14.94;48.05;100801.53;5037237;27;99213;-74
2021/08/04 00:39:21;;;;;;;1999.90;999.90;;;;;;;14.92;47.95;100804.19;5022675;27;97982;-74
2021/08/04 00:41:50;;;;;;;1999.90;999.90;;;;;;;14.91;48.18;100806.88;5022663;27;97971;-73
2021/08/04 00:44:18;;;;;;;1999.90;999.90;;;;;;;14.90;47.96;100807.78;5022297;27;98099;-74
2021/08/04 00:46:47;;;;;;;1999.90;999.90;;;;;;;14.88;48.33;100809.56;5022442;27;99460;-74
2021/08/04 00:49:15;;;;;;;1999.90;999.90;;;;;;;14.88;48.20;100801.53;5040231;27;97370;-74
2021/08/04 00:51:43;;;;;;;1999.90;999.90;;;;;;;14.86;48.41;100803.28;5039385;27;97434;-74
2021/08/04 00:54:11;;;;;;;1999.90;999.90;;;;;;;14.87;48.12;100807.75;5040987;27;97065;-75
2021/08/04 00:56:39;;;;;;;1999.90;999.90;;;;;;;14.85;48.45;100804.16;5022123;27;100713;-74
2021/08/04 00:59:08;;;;;;;1999.90;999.90;;;;;;;14.84;48.56;100797.94;5039757;27;98555;-74
2021/08/04 01:01:41;;;;;;;1999.90;999.90;;;;;;;14.82;48.61;100801.50;5039158;27;98179;-75
2021/08/04 01:04:13;;;;;;;1999.90;999.90;;;;;;;14.82;48.69;100802.38;5035127;27;98176;-74
2021/08/04 01:06:46;;;;;;;1999.90;999.90;;;;;;;14.82;48.87;100802.38;5038704;27;99401;-73
2021/08/04 01:09:15;;;;;;;1999.90;999.90;;;;;;;14.82;48.88;100812.19;5021958;27;97604;-73
2021/08/04 01:11:48;;;;;;;1999.90;999.90;;;;;;;14.80;48.90;100805.94;5021774;27;97407;-74
2021/08/04 01:14:19;;;;;;;1999.90;999.90;;;;;;;14.78;48.60;100810.41;5021738;27;98108;-74
2021/08/04 01:16:47;;;;;;;1999.90;999.90;;;;;;;14.76;48.71;100818.44;5012331;27;98023;-73
2021/08/04 01:19:27;;;;;;;1999.90;999.90;;;;;;;14.74;49.00;100814.84;5022137;27;101026;-75
2021/08/04 01:22:00;;;;;;;1999.90;999.90;;;;;;;14.74;49.01;100812.16;5020932;27;96943;-74
2021/08/04 01:24:30;;;;;;;1999.90;999.90;;;;;;;14.75;49.29;100810.38;5022642;27;98059;-73
2021/08/04 01:27:00;;;;;;;1999.90;999.90;;;;;;;14.73;48.94;100809.47;5037986;27;100709;-74
2021/08/04 01:29:29;;;;;;;1999.90;999.90;;;;;;;14.70;49.16;100818.38;5038394;27;97520;-73
2021/08/04 01:31:58;;;;;;;1999.90;999.90;;;;;;;14.70;49.05;100812.16;5022099;27;98086;-73
2021/08/04 01:34:26;;;;;;;1999.90;999.90;;;;;;;14.70;49.24;100806.81;5039773;27;97095;-74
2021/08/04 01:36:56;;;;;;;1999.90;999.90;;;;;;;14.69;49.13;100805.00;5038101;27;98131;-74
2021/08/04 01:39:24;;;;;;;1999.90;999.90;;;;;;;14.69;49.27;100805.00;5021861;27;99727;-74
2021/08/04 01:41:52;;;;;;;1999.90;999.90;;;;;;;14.69;49.14;100807.66;5039523;27;96980;-75
2021/08/04 01:44:21;;;;;;;1999.90;999.90;;;;;;;14.69;49.09;100810.34;5040413;27;96693;-74
2021/08/04 01:46:50;;;;;;;1999.90;999.90;;;;;;;14.69;49.32;100811.25;5038800;27;98656;-73
2021/08/04 01:49:18;;;;;;;1999.90;999.90;;;;;;;14.68;49.09;100803.22;5021009;27;100813;-73
2021/08/04 01:51:46;;;;;;;1999.90;999.90;;;;;;;14.67;48.92;100812.13;5021482;27;97869;-72
2021/08/04 01:54:14;;;;;;;1999.90;999.90;;;;;;;14.66;49.04;100810.34;5039247;27;97730;-72
2021/08/04 01:56:41;;;;;;;1999.90;999.90;;;;;;;14.66;48.81;100807.66;5020162;27;101422;-73
2021/08/04 01:59:09;;;;;;;1999.90;999.90;;;;;;;14.65;48.71;100801.41;5020995;27;101267;-74
2021/08/04 02:01:39;;;;;;;1999.90;999.90;;;;;;;14.68;49.09;100803.22;5035610;27;98224;-73
2021/08/04 02:04:08;;;;;;;1999.90;999.90;;;;;;;14.68;48.65;100798.72;5021886;27;97367;-73
2021/08/04 02:06:41;;;;;;;1999.90;999.90;;;;;;;14.65;48.98;100800.50;5034931;27;100927;-73
2021/08/04 02:09:13;;;;;;;1999.90;999.90;;;;;;;14.64;48.96;100790.69;5039956;27;97969;-74
2021/08/04 02:11:55;;;;;;;1999.90;999.90;;;;;;;14.64;48.96;100798.72;5020176;27;98203;-73
2021/08/04 02:14:27;;;;;;;1999.90;999.90;;;;;;;14.63;49.13;100794.25;5020992;27;97843;-73
2021/08/04 02:17:02;;;;;;;1999.90;999.90;;;;;;;14.61;49.09;100788.88;5037451;27;97770;-74
2021/08/04 02:19:32;;;;;;;1999.90;999.90;;;;;;;14.59;49.46;100792.47;5039110;27;97518;-74
2021/08/04 02:22:04;;;;;;;1999.90;999.90;;;;;;;14.56;49.49;100798.69;5037720;27;98043;-74
2021/08/04 02:24:34;;;;;;;1999.90;999.90;;;;;;;14.57;49.45;100788.88;5021004;27;97909;-74
2021/08/04 02:27:03;;;;;;;1999.90;999.90;;;;;;;14.57;49.70;100794.22;5037605;27;98319;-73
2021/08/04 02:29:34;;;;;;;1999.90;999.90;;;;;;;14.56;49.75;100795.09;5037723;27;99385;-74
2021/08/04 02:32:04;;;;;;;1999.90;999.90;;;;;;;14.51;49.76;100791.47;5037062;27;98562;-72
2021/08/04 02:34:32;;;;;;;1999.90;999.90;;;;;;;14.52;49.60;100790.56;5022113;27;97307;-73
2021/08/04 02:37:00;;;;;;;1999.90;999.90;;;;;;;14.51;49.79;100794.16;5037575;27;97850;-74
2021/08/04 02:39:28;;;;;;;1999.90;999.90;;;;;;;14.48;49.75;100783.44;5019956;27;100227;-74
2021/08/04 02:41:56;;;;;;;1999.90;999.90;;;;;;;14.48;49.73;100786.13;5014814;27;97934;-73
2021/08/04 02:44:24;;;;;;;1999.90;999.90;;;;;;;14.53;49.49;100793.28;5021463;27;97689;-72
2021/08/04 02:46:52;;;;;;;1999.90;999.90;;;;;;;14.52;49.67;100787.91;5034009;27;100920;-73
2021/08/04 02:49:22;;;;;;;1999.90;999.90;;;;;;;14.50;49.58;100793.25;5036471;27;98810;-74
2021/08/04 02:51:50;;;;;;;1999.90;999.90;;;;;;;14.49;49.35;100791.47;5020773;27;97251;-74
2021/08/04 02:54:19;;;;;;;1999.90;999.90;;;;;;;14.48;49.60;100794.16;5019651;27;97435;-74
2021/08/04 02:56:47;;;;;;;1999.90;999.90;;;;;;;14.46;49.52;100790.56;5019246;27;100555;-74
2021/08/04 02:59:15;;;;;;;1999.90;999.90;;;;;;;14.45;49.41;100802.16;5038342;27;99566;-74
2021/08/04 03:01:43;;;;;;;1999.90;999.90;;;;;;;14.42;49.61;100796.78;5038015;27;97178;-72
2021/08/04 03:04:11;;;;;;;1999.90;999.90;;;;;;;14.39;49.44;100804.81;5037448;27;97526;-72
2021/08/04 03:06:40;;;;;;;1999.90;999.90;;;;;;;14.37;49.46;100806.59;5036880;27;99125;-75
2021/08/04 03:09:08;;;;;;;1999.90;999.90;;;;;;;14.35;49.56;100797.66;5039265;27;98046;-75
2021/08/04 03:11:35;;;;;;;1999.90;999.90;;;;;;;14.36;49.58;100796.75;5036859;27;97288;-74
2021/08/04 03:14:03;;;;;;;1999.90;999.90;;;;;;;14.32;49.77;100806.53;5037874;27;97001;-74
2021/08/04 03:16:31;;;;;;;1999.90;999.90;;;;;;;14.33;49.69;100805.66;5037273;27;97723;-73
2021/08/04 03:18:59;;;;;;;1999.90;999.90;;;;;;;14.33;49.82;100813.69;5030507;27;99524;-74
2021/08/04 03:21:28;;;;;;;1999.90;999.90;;;;;;;14.32;49.76;100817.25;5036444;27;98236;-73
2021/08/04 03:23:57;;;;;;;1999.90;999.90;;;;;;;14.31;49.84;100811.88;5037135;27;97907;-74
2021/08/04 03:26:25;;;;;;;1999.90;999.90;;;;;;;14.30;49.83;100807.44;5020210;27;99441;-74
2021/08/04 03:28:52;;;;;;;1999.90;999.90;;;;;;;14.29;50.03;100814.56;5038808;27;97558;-74
2021/08/04 03:31:20;;;;;;;1999.90;999.90;;;;;;;14.29;50.17;100806.53;5020081;27;97595;-73
2021/08/04 03:33:48;;;;;;;1999.90;999.90;;;;;;;14.28;50.42;100811.88;5037828;27;97232;-74
2021/08/04 03:36:16;;;;;;;1999.90;999.90;;;;;;;14.26;50.36;100809.19;5038193;27;98759;-74
2021/08/04 03:38:43;;;;;;;1999.90;999.90;;;;;;;14.26;50.55;100808.28;5032308;27;100289;-74
2021/08/04 03:41:12;;;;;;;1999.90;999.90;;;;;;;14.25;50.47;100807.38;5036646;27;97349;-74
2021/08/04 03:43:40;;;;;;;1999.90;999.90;;;;;;;14.27;50.23;100815.44;5032669;27;98015;-74
2021/08/04 03:46:08;;;;;;;1999.90;999.90;;;;;;;14.27;50.25;100815.44;5036266;27;100567;-74
2021/08/04 03:48:36;;;;;;;1999.90;999.90;;;;;;;14.25;50.50;100815.41;5037425;27;99330;-73
2021/08/04 03:51:04;;;;;;;1999.90;999.90;;;;;;;14.24;50.39;100810.06;5043062;27;97237;-74
2021/08/04 03:53:32;;;;;;;1999.90;999.90;;;;;;;14.24;50.65;100810.06;5027372;27;98015;-74
2021/08/04 03:55:59;;;;;;;1999.90;999.90;;;;;;;14.22;50.46;100817.19;5042975;27;99479;-74
2021/08/04 03:58:29;;;;;;;1999.90;999.90;;;;;;;14.20;50.53;100817.19;5041211;27;100717;-73
2021/08/04 04:00:57;;;;;;;1999.90;999.90;;;;;;;14.20;50.90;100818.94;5039947;27;97428;-73
2021/08/04 04:03:24;;;;;;;1999.90;999.90;;;;;;;14.17;50.90;100818.03;5044462;27;97291;-74
2021/08/04 04:05:52;;;;;;;1999.90;999.90;;;;;;;14.15;51.12;100819.81;5042400;27;98953;-74
2021/08/04 04:08:20;;;;;;;1999.90;999.90;;;;;;;14.15;50.90;100830.50;5041145;27;100274;-74
2021/08/04 04:10:48;;;;;;;1999.90;999.90;;;;;;;14.14;50.96;100820.72;5041928;27;97084;-73
2021/08/04 04:13:15;;;;;;;1999.90;999.90;;;;;;;14.15;51.15;100816.25;5044331;27;97700;-73
2021/08/04 04:15:44;;;;;;;1999.90;999.90;;;;;;;14.13;50.89;100816.22;5042218;27;99724;-74
2021/08/04 04:18:12;;;;;;;1999.90;999.90;;;;;;;14.14;51.06;100819.81;5043670;27;97997;-73
2021/08/04 04:20:40;;;;;;;1999.90;999.90;;;;;;;14.11;51.18;100820.69;5044735;27;97374;-75
2021/08/04 04:23:08;;;;;;;1999.90;999.90;;;;;;;14.15;51.32;100822.47;5042753;27;96979;-74
2021/08/04 04:25:35;;;;;;;1999.90;999.90;;;;;;;14.18;51.26;100826.97;5042710;27;99494;-74
2021/08/04 04:28:03;;;;;;;1999.90;999.90;;;;;;;14.19;51.27;100823.41;5043176;27;99410;-74
2021/08/04 04:30:31;;;;;;;1999.90;999.90;;;;;;;14.20;51.14;100835.91;5026393;27;98113;-74
2021/08/04 04:33:00;;;;;;;1999.90;999.90;;;;;;;14.21;51.03;100836.81;5044230;27;97278;-74
2021/08/04 04:35:28;;;;;;;1999.90;999.90;;;;;;;14.24;50.97;100836.84;5044167;27;97523;-74
2021/08/04 04:37:56;;;;;;;1999.90;999.90;;;;;;;14.20;51.26;100841.28;5026056;27;99660;-74
2021/08/04 04:40:24;;;;;;;1999.90;999.90;;;;;;;14.23;51.09;100848.41;5041707;27;97616;-74
2021/08/04 04:42:51;;;;;;;1999.90;999.90;;;;;;;14.23;51.13;100843.03;5026622;27;97406;-74
2021/08/04 04:45:20;;;;;;;1999.90;999.90;;;;;;;14.24;51.26;100847.53;5025896;27;101268;-74
2021/08/04 04:47:48;;;;;;;1999.90;999.90;;;;;;;14.24;51.11;100848.44;5043993;27;97935;-74
2021/08/04 04:50:17;;;;;;;1999.90;999.90;;;;;;;14.25;51.08;100850.22;5042909;27;98373;-74
2021/08/04 04:52:45;;;;;;;1999.90;999.90;;;;;;;14.27;50.87;100844.88;5041716;27;97413;-74
2021/08/04 04:55:14;;;;;;;1999.90;999.90;;;;;;;14.29;51.13;100837.75;5032618;27;99698;-74
2021/08/04 04:57:41;;;;;;;1999.90;999.90;;;;;;;14.31;51.01;100849.38;5043065;27;98801;-74
2021/08/04 05:00:12;;;;;;;1999.90;999.90;;;;;;;14.32;51.12;100844.00;5035396;27;97680;-73
2021/08/04 05:02:40;;;;;;;1999.90;999.90;;;;;;;14.32;51.00;100852.03;5039247;27;97643;-73
2021/08/04 05:05:13;;;;;;;1999.90;999.90;;;;;;;14.33;51.26;100848.50;5013787;27;98039;-74
2021/08/04 05:07:42;;;;;;;1999.90;999.90;;;;;;;14.35;51.22;100843.16;5040210;27;99239;-73
2021/08/04 05:10:10;;;;;;;1999.90;999.90;;;;;;;14.33;50.96;100847.59;5039500;27;97209;-73
2021/08/04 05:12:38;;;;;;;1999.90;999.90;;;;;;;14.36;51.27;100845.84;5040457;27;99278;-73
2021/08/04 05:15:07;;;;;;;1999.90;999.90;;;;;;;14.37;51.35;100852.09;5038046;27;99093;-73
2021/08/04 05:17:35;;;;;;;1999.90;999.90;;;;;;;14.36;51.18;100853.88;5040733;27;97818;-73
2021/08/04 05:20:03;;;;;;;1999.90;999.90;;;;;;;14.36;51.25;100855.63;5040310;27;99403;-74
2021/08/04 05:22:31;;;;;;;1999.90;999.90;;;;;;;14.37;51.26;100854.78;5022747;27;97168;-73
2021/08/04 05:25:00;;;;;;;1999.90;999.90;;;;;;;14.38;51.20;100861.91;5038227;27;99401;-74
2021/08/04 05:27:27;;;;;;;1999.90;999.90;;;;;;;14.40;51.45;100863.72;5038518;27;98939;-74
2021/08/04 05:29:55;;;;;;;1999.90;999.90;;;;;;;14.41;51.44;100859.28;5039092;27;97304;-73
2021/08/04 05:32:23;;;;;;;1999.90;999.90;;;;;;;14.43;51.36;100862.81;5038292;27;98486;-75
2021/08/04 05:34:50;;;;;;;1999.90;999.90;;;;;;;14.45;51.14;100858.38;5038717;27;99691;-75
2021/08/04 05:37:18;;;;;;;1999.90;999.90;;;;;;;14.46;51.34;100865.53;5039516;27;98860;-73
2021/08/04 05:39:46;;;;;;;1999.90;999.90;;;;;;;14.46;51.28;100865.53;5037574;27;96969;-75
2021/08/04 05:42:15;;;;;;;1999.90;999.90;;;;;;;14.50;51.28;100864.69;5038138;27;97976;-73
2021/08/04 05:44:43;;;;;;;1999.90;999.90;;;;;;;14.52;51.33;100862.88;5038649;27;100329;-74
2021/08/04 05:47:16;;;;;;;1999.90;999.90;;;;;;;14.54;51.11;100866.47;5033801;27;99745;-74
2021/08/04 05:49:44;;;;;;;1999.90;999.90;;;;;;;14.57;51.28;100863.88;5039584;27;97621;-74
2021/08/04 05:52:12;;;;;;;1999.90;999.90;;;;;;;14.60;50.94;100858.50;5021477;27;97269;-73
2021/08/04 05:54:40;;;;;;;1999.90;999.90;;;;;;;14.61;50.90;100863.88;5038386;27;99414;-74
2021/08/04 05:57:08;;;;;;;1999.90;999.90;;;;;;;14.64;50.68;100861.25;5038776;27;98372;-75
2021/08/04 05:59:37;;;;;;;1999.90;999.90;;;;;;;14.66;50.58;100858.56;5039166;27;97849;-75
2021/08/04 06:02:06;;;;;;;1999.90;999.90;;;;;;;14.71;50.76;100857.69;5037847;27;97101;-74
2021/08/04 06:04:33;;;;;;;1999.90;999.90;;;;;;;14.74;50.84;100859.47;5037711;27;97845;-73
2021/08/04 06:07:01;;;;;;;1999.90;999.90;;;;;;;14.79;50.79;100868.47;5038199;27;97645;-72
2021/08/04 06:09:30;;;;;;;1999.90;999.90;;;;;;;14.80;50.80;100857.75;5038762;27;97995;-75
2021/08/04 06:11:58;;;;;;;1999.90;999.90;;;;;;;14.86;50.55;100863.13;5034875;27;97881;-74
2021/08/04 06:14:26;;;;;;;1999.90;999.90;;;;;;;14.88;50.48;100861.34;5036390;27;98990;-74
2021/08/04 06:16:55;;;;;;;1999.90;999.90;;;;;;;14.91;50.57;100864.06;5034279;27;101886;-74
2021/08/04 06:19:23;;;;;;;1999.90;999.90;;;;;;;14.93;50.47;100870.31;5032582;27;97369;-74
2021/08/04 06:21:51;;;;;;;1999.90;999.90;;;;;;;14.96;50.30;100880.13;5037388;27;97606;-75
2021/08/04 06:24:18;;;;;;;1999.90;999.90;;;;;;;15.00;50.37;100881.94;5037183;27;98750;-72
2021/08/04 06:26:46;;;;;;;1999.90;999.90;;;;;;;15.03;50.25;100879.28;5038375;27;97547;-74
2021/08/04 06:29:14;;;;;;;1999.90;999.90;;;;;;;15.05;49.92;100886.44;5021005;27;97986;-74
2021/08/04 06:31:41;;;;;;;1999.90;999.90;;;;;;;15.09;50.03;100882.00;5036850;27;97220;-74
2021/08/04 06:34:11;;;;;;;1999.90;999.90;;;;;;;15.12;50.01;100887.34;5020643;27;99515;-74
2021/08/04 06:36:38;;;;;;;1999.90;999.90;;;;;;;15.16;50.10;100889.16;5037428;27;99655;-75
2021/08/04 06:39:06;;;;;;;1999.90;999.90;;;;;;;15.19;50.06;100885.63;5038149;27;97477;-73
2021/08/04 06:41:39;;;;;;;1999.90;999.90;;;;;;;15.28;49.92;100891.00;5027531;27;96954;-73
2021/08/04 06:44:07;;;;;;;1999.90;999.90;;;;;;;15.32;49.34;100896.41;5020610;27;97728;-73
2021/08/04 06:46:35;;;;;;;1999.90;999.90;;;;;;;15.33;49.46;100895.53;5037662;27;98600;-73
2021/08/04 06:49:04;;;;;;;1999.90;999.90;;;;;;;15.37;49.07;100894.66;5035183;27;97673;-73
2021/08/04 06:51:34;;;;;;;1999.90;999.90;;;;;;;15.40;48.98;100894.66;5021047;27;99052;-74
2021/08/04 06:54:02;;;;;;;1999.90;999.90;;;;;;;15.47;48.66;100892.88;5038558;27;97943;-74
2021/08/04 06:56:30;;;;;;;1999.90;999.90;;;;;;;15.49;48.95;100893.78;5037957;27;100651;-75
2021/08/04 06:58:58;;;;;;;1999.90;999.90;;;;;;;15.52;49.01;100897.34;5039022;27;97202;-74
2021/08/04 07:01:26;;;;;;;1999.90;999.90;;;;;;;15.56;48.49;100893.81;5020373;27;97221;-75
2021/08/04 07:03:54;;;;;;;1999.90;999.90;;;;;;;15.55;48.89;100886.66;5036803;27;98124;-73
2021/08/04 07:06:22;;;;;;;1999.90;999.90;;;;;;;15.59;48.96;100884.88;5037299;27;98910;-74
2021/08/04 07:08:51;;;;;;;1999.90;999.90;;;;;;;15.62;48.92;100885.78;5038326;27;98259;-73
2021/08/04 07:11:22;;;;;;;1999.90;999.90;;;;;;;15.63;48.73;100892.91;5036586;27;97206;-75
2021/08/04 07:13:50;;;;;;;1999.90;999.90;;;;;;;15.67;48.71;100893.81;5038883;27;97787;-74
2021/08/04 07:16:18;;;;;;;1999.90;999.90;;;;;;;15.71;48.68;100896.53;5038455;27;97612;-74
2021/08/04 07:18:46;;;;;;;1999.90;999.90;;;;;;;15.74;48.29;100901.88;5020303;27;97424;-74
2021/08/04 07:21:14;;;;;;;1999.90;999.90;;;;;;;15.75;48.45;100898.34;5035431;27;97163;-75
2021/08/04 07:23:46;;;;;;;1999.90;999.90;;;;;;;15.77;48.38;100896.53;5037154;27;102352;-73
2021/08/04 07:26:15;;;;;;;1999.90;999.90;;;;;;;15.78;48.17;100902.78;5020064;27;99035;-73
2021/08/04 07:28:43;;;;;;;1999.90;999.90;;;;;;;15.83;48.49;100901.03;5036459;27;97333;-74
2021/08/04 07:31:11;;;;;;;1999.90;999.90;;;;;;;15.88;48.52;100901.91;5015906;27;97022;-74
2021/08/04 07:33:40;;;;;;;1999.90;999.90;;;;;;;15.90;48.53;100906.38;5038596;27;97683;-73
2021/08/04 07:36:08;;;;;;;1999.90;999.90;;;;;;;15.93;48.48;100902.81;5037763;27;97918;-74
2021/08/04 07:38:35;;;;;;;1999.90;999.90;;;;;;;15.97;47.80;100905.53;5038375;27;97730;-74
2021/08/04 07:41:04;;;;;;;1999.90;999.90;;;;;;;16.01;47.67;100901.94;5020119;27;98209;-75
2021/08/04 07:43:34;;;;;;;1999.90;999.90;;;;;;;15.99;47.45;100901.06;5038389;27;98794;-73
2021/08/04 07:46:02;;;;;;;1999.90;999.90;;;;;;;16.06;47.24;100905.56;5056267;27;97802;-74
2021/08/04 07:48:30;;;;;;;1999.90;999.90;;;;;;;16.08;47.12;100902.88;5035795;27;97318;-74
2021/08/04 07:51:00;;;;;;;1999.90;999.90;;;;;;;16.11;46.71;100902.88;5020390;27;97955;-73
2021/08/04 07:53:29;;;;;;;1999.90;999.90;;;;;;;16.15;46.84;100901.06;5035478;27;97809;-74
2021/08/04 07:55:56;;;;;;;1999.90;999.90;;;;;;;16.19;46.47;100905.56;5037689;27;99259;-74
2021/08/04 07:58:24;;;;;;;1999.90;999.90;;;;;;;16.23;46.54;100901.97;5036007;27;97983;-74
2021/08/04 08:00:54;;;;;;;1999.90;999.90;;;;;;;16.26;46.16;100901.97;5021457;27;97518;-74
2021/08/04 08:03:22;;;;;;;1999.90;999.90;;;;;;;16.29;46.31;100896.63;5037994;27;97905;-74
2021/08/04 08:05:50;;;;;;;1999.90;999.90;;;;;;;16.29;46.32;100892.13;5037336;27;98957;-73
2021/08/04 08:08:18;;;;;;;1999.90;999.90;;;;;;;16.34;46.04;100894.81;5036924;27;97305;-74
2021/08/04 08:10:49;;;;;;;1999.90;999.90;;;;;;;16.38;45.90;100893.94;5038115;27;96999;-74
2021/08/04 08:13:17;;;;;;;1999.90;999.90;;;;;;;16.40;46.02;100898.38;5036115;27;98720;-74
2021/08/04 08:15:45;;;;;;;1999.90;999.90;;;;;;;16.44;45.55;100893.91;5035445;27;101065;-74
2021/08/04 08:18:15;;;;;;;1999.90;999.90;;;;;;;16.45;45.36;100891.19;5037464;27;97068;-72
2021/08/04 08:20:43;;;;;;;1999.90;999.90;;;;;;;16.50;45.16;100892.13;5019367;27;97646;-72
2021/08/04 08:23:11;;;;;;;1999.90;999.90;;;;;;;16.55;45.05;100894.78;5037623;27;97045;-74
2021/08/04 08:25:40;;;;;;;1999.90;999.90;;;;;;;16.59;44.82;100880.44;5037521;27;98403;-73
2021/08/04 08:28:07;;;;;;;1999.90;999.90;;;;;;;16.65;45.27;100888.50;5036071;27;97183;-74
2021/08/04 08:30:36;;;;;;;1999.90;999.90;;;;;;;16.68;45.10;100883.13;5035836;27;97119;-74
2021/08/04 08:33:05;;;;;;;1999.90;999.90;;;;;;;16.73;45.08;100894.78;5036090;27;97850;-74
2021/08/04 08:35:34;;;;;;;1999.90;999.90;;;;;;;16.74;44.46;100885.84;5037073;27;99612;-74
2021/08/04 08:38:02;;;;;;;1999.90;999.90;;;;;;;16.77;44.33;100885.81;5039916;27;97563;-72
2021/08/04 08:40:30;;;;;;;1999.90;999.90;;;;;;;16.80;44.37;100881.31;5022787;27;97458;-74
2021/08/04 08:42:57;;;;;;;1999.90;999.90;;;;;;;16.80;44.01;100877.72;5038966;27;99583;-75
2021/08/04 08:45:25;;;;;;;1999.90;999.90;;;;;;;16.82;43.74;100884.00;5041046;27;98832;-74
2021/08/04 08:47:53;;;;;;;1999.90;999.90;;;;;;;16.86;43.54;100885.78;5039092;27;97900;-73
2021/08/04 08:50:25;;;;;;;1999.90;999.90;;;;;;;16.88;43.43;100886.69;5040160;27;97974;-74
2021/08/04 08:52:56;;;;;;;1999.90;999.90;;;;;;;16.89;43.32;100886.66;5039359;27;99343;-74
2021/08/04 08:55:25;;;;;;;1999.90;999.90;;;;;;;16.92;43.18;100888.47;5041748;27;99950;-75
2021/08/04 08:57:53;;;;;;;1999.90;999.90;;;;;;;16.93;43.12;100883.06;5040441;27;97571;-72
2021/08/04 09:00:21;;;;;;;1999.90;999.90;;;;;;;16.94;43.19;100886.66;5040293;27;97140;-73
2021/08/04 09:02:49;;;;;;;1999.90;999.90;;;;;;;16.93;43.25;100883.06;5040770;27;98188;-72
2021/08/04 09:05:17;;;;;;;1999.90;999.90;;;;;;;16.98;43.28;100897.38;5040258;27;97469;-71
2021/08/04 09:07:47;;;;;;;1999.90;999.90;;;;;;;16.98;43.22;100891.16;5020616;27;97150;-73
2021/08/04 09:10:26;;;;;;;1999.90;999.90;;;;;;;16.97;43.54;100892.03;5036542;27;97493;-72
2021/08/04 09:12:55;;;;;;;1999.90;999.90;;;;;;;16.97;43.78;100883.97;5039384;27;97904;-72
2021/08/04 09:15:25;;;;;;;1999.90;999.90;;;;;;;16.99;43.84;100882.16;5038070;27;100821;-72
2021/08/04 09:18:06;;;;;;;1999.90;999.90;;;;;;;16.96;44.20;100887.56;5040940;27;97002;-72
2021/08/04 09:20:48;;;;;;;1999.90;999.90;;;;;;;16.96;44.42;100892.94;5031591;27;97744;-72
2021/08/04 09:23:17;;;;;;;1999.90;999.90;;;;;;;16.99;44.31;100891.13;5039332;27;98019;-72
2021/08/04 09:26:06;;;;;;;1999.90;999.90;;;;;;;17.00;44.43;100889.31;5034995;27;98338;-73
2021/08/04 09:28:53;;;;;;;1999.90;999.90;;;;;;;17.01;44.26;100883.06;5038163;27;97096;-72
2021/08/04 09:31:21;;;;;;;1999.90;999.90;;;;;;;17.01;44.13;100885.75;5039758;27;97213;-72
2021/08/04 09:33:49;;;;;;;1999.90;999.90;;;;;;;17.02;44.19;100883.03;5031501;27;99273;-72
2021/08/04 09:36:27;;;;;;;1999.90;999.90;;;;;;;17.05;44.17;100879.47;5040358;27;97129;-73
2021/08/04 09:39:02;;;;;;;1999.90;999.90;;;;;;;17.05;44.40;100876.78;5022190;27;97176;-72
2021/08/04 09:41:32;;;;;;;1999.90;999.90;;;;;;;17.05;44.06;100887.53;5039480;27;97151;-73
2021/08/04 09:44:04;;;;;;;1999.90;999.90;;;;;;;17.08;44.09;100890.19;5039439;27;99747;-73
2021/08/04 09:46:32;;;;;;;1999.90;999.90;;;;;;;17.10;44.15;100885.72;5035196;27;99997;-72
2021/08/04 09:49:10;;;;;;;1999.90;999.90;;;;;;;17.11;44.34;100882.09;5035814;27;97974;-72
2021/08/04 09:51:38;;;;;;;1999.90;999.90;;;;;;;17.14;44.26;100879.41;5040656;27;97562;-73
2021/08/04 09:54:08;;;;;;;1999.90;999.90;;;;;;;17.16;44.16;100883.00;5039902;27;97627;-73
2021/08/04 09:56:48;;;;;;;1999.90;999.90;;;;;;;17.17;44.22;100879.41;5038685;27;98456;-71
2021/08/04 09:59:15;;;;;;;1999.90;999.90;;;;;;;17.17;44.06;100874.03;5037322;27;98603;-71
2021/08/04 10:01:43;;;;;;;1999.90;999.90;;;;;;;17.19;43.55;100869.53;5038288;27;97702;-72
2021/08/04 10:04:12;;;;;;;1999.90;999.90;;;;;;;17.22;43.48;100874.88;5040392;27;97918;-73
2021/08/04 10:06:42;;;;;;;1999.90;999.90;;;;;;;17.25;43.35;100872.19;5032597;27;100031;-73
2021/08/04 10:09:11;;;;;;;1999.90;999.90;;;;;;;17.27;42.90;100867.72;5038327;27;97829;-73
2021/08/04 10:11:41;;;;;;;1999.90;999.90;;;;;;;17.31;43.09;100871.28;5038127;27;96796;-72
2021/08/04 10:14:13;;;;;;;1999.90;999.90;;;;;;;17.34;42.90;100863.19;5038762;27;99348;-72
2021/08/04 10:16:42;;;;;;;1999.90;999.90;;;;;;;17.37;43.14;100863.16;5037966;27;100834;-73
2021/08/04 10:19:10;;;;;;;1999.90;999.90;;;;;;;17.39;42.85;100864.97;5035574;27;98156;-71
2021/08/04 10:21:42;;;;;;;1999.90;999.90;;;;;;;17.43;42.51;100858.69;5019010;27;97649;-73
2021/08/04 10:24:12;;;;;;;1999.90;999.90;;;;;;;17.46;42.25;100869.41;5037807;27;99313;-73
2021/08/04 10:26:41;;;;;;;1999.90;999.90;;;;;;;17.50;42.22;100859.53;5039082;27;97973;-73
2021/08/04 10:29:11;;;;;;;1999.90;999.90;;;;;;;17.52;42.06;100869.41;5022072;27;97479;-72
2021/08/04 10:31:40;;;;;;;1999.90;999.90;;;;;;;17.57;41.93;100872.94;5039142;27;97074;-72
2021/08/04 10:34:23;;;;;;;1999.90;999.90;;;;;;;17.62;41.71;100863.03;5037653;27;101705;-72
2021/08/04 10:36:51;;;;;;;1999.90;999.90;;;;;;;17.67;41.80;100873.78;5020939;27;99416;-73
2021/08/04 10:39:21;;;;;;;1999.90;999.90;;;;;;;17.68;41.39;100865.69;5038594;27;97062;-73
2021/08/04 10:42:03;;;;;;;1999.90;999.90;;;;;;;17.72;40.76;100861.19;5021079;27;97628;-73
2021/08/04 10:44:33;;;;;;;1999.90;999.90;;;;;;;17.75;40.57;100858.47;5038880;27;98800;-73
2021/08/04 10:47:02;;;;;;;1999.90;999.90;;;;;;;17.78;40.38;100858.47;5034245;27;100689;-73
2021/08/04 10:49:32;;;;;;;1999.90;999.90;;;;;;;17.82;40.25;100852.16;5038377;27;97503;-73
2021/08/04 10:52:14;;;;;;;1999.90;999.90;;;;;;;17.85;39.89;100850.34;5037196;27;97325;-72
2021/08/04 10:55:05;;;;;;;1999.90;999.90;;;;;;;17.88;39.14;100847.59;5039128;27;97976;-72
2021/08/04 10:57:36;;;;;;;1999.90;999.90;;;;;;;17.91;39.13;100854.78;5019484;27;97930;-72